Time;durP1;ratioP1;P1;durP2;ratioP2;P2;SDS_P1;SDS_P2;PMS_P1;PMS_P2;Temp;Humidity;BMP_temperature;BMP_pressure;BME280_temperature;BME280_humidity;BME280_pressure;Samples;Min_cycle;Max_cycle;Signal;HPM_P1;HPM_P2
2022/05/20 00:00:25;;;;;;;90.40;57.60;;;;;;;;;;5071545;28;20106;-59
2022/05/20 00:02:51;;;;;;;69.87;47.63;;;;;;;;;;5071501;28;20041;-59
2022/05/20 00:05:17;;;;;;;72.00;50.70;;;;;;;;;;5071627;28;20049;-59
2022/05/20 00:07:43;;;;;;;66.80;47.50;;;;;;;;;;5070686;28;20075;-59
2022/05/20 00:10:12;;;;;;;60.80;43.50;;;;;;;;;;5065597;28;20060;-59
2022/05/20 00:12:38;;;;;;;54.83;39.93;;;;;;;;;;5071912;28;20044;-58
2022/05/20 00:15:05;;;;;;;56.17;41.73;;;;;;;;;;5071577;28;20048;-59
2022/05/20 00:17:31;;;;;;;65.67;41.83;;;;;;;;;;5071375;28;20124;-59
2022/05/20 00:19:57;;;;;;;55.47;39.63;;;;;;;;;;5060943;28;20099;-58
2022/05/20 00:22:23;;;;;;;54.57;38.73;;;;;;;;;;5057958;28;20056;-59
2022/05/20 00:27:34;;;;;;;56.43;39.50;;;;;;;;;;5051123;28;20049;-59
2022/05/20 00:30:00;;;;;;;55.83;38.47;;;;;;;;;;5060301;28;20063;-59
2022/05/20 00:32:26;;;;;;;64.47;42.10;;;;;;;;;;5071112;28;20072;-59
2022/05/20 00:34:52;;;;;;;59.50;38.57;;;;;;;;;;5069971;28;20518;-59
2022/05/20 00:37:18;;;;;;;53.80;37.13;;;;;;;;;;5059679;28;20045;-59
2022/05/20 00:39:44;;;;;;;62.50;39.80;;;;;;;;;;5050292;28;20049;-58
2022/05/20 00:42:15;;;;;;;47.67;35.67;;;;;;;;;;5050937;28;20570;-59
2022/05/20 00:44:41;;;;;;;58.07;36.33;;;;;;;;;;5051097;28;20040;-59
2022/05/20 00:47:07;;;;;;;60.60;40.43;;;;;;;;;;5071188;28;20457;-58
2022/05/20 00:49:34;;;;;;;50.70;36.63;;;;;;;;;;5070184;28;20045;-58
2022/05/20 00:52:00;;;;;;;46.70;35.33;;;;;;;;;;5059765;28;20044;-59
2022/05/20 00:54:41;;;;;;;44.00;33.17;;;;;;;;;;5050739;28;20171;-59
2022/05/20 00:57:09;;;;;;;65.40;38.77;;;;;;;;;;5050832;28;20045;-59
2022/05/20 00:59:37;;;;;;;61.00;40.27;;;;;;;;;;5050851;28;20063;-59
2022/05/20 01:02:16;;;;;;;51.07;37.90;;;;;;;;;;5050445;28;20087;-59
2022/05/20 01:04:42;;;;;;;54.43;38.97;;;;;;;;;;5058960;28;20522;-59
2022/05/20 01:07:09;;;;;;;67.50;42.23;;;;;;;;;;5068912;28;20044;-59
2022/05/20 01:09:38;;;;;;;62.67;40.23;;;;;;;;;;5070226;28;20041;-59
2022/05/20 01:12:04;;;;;;;53.77;37.10;;;;;;;;;;5070455;28;20051;-59
2022/05/20 01:14:30;;;;;;;59.67;38.70;;;;;;;;;;5065866;28;20084;-59
2022/05/20 01:16:56;;;;;;;49.70;33.63;;;;;;;;;;5050450;28;20435;-59
2022/05/20 01:19:30;;;;;;;53.87;37.53;;;;;;;;;;5050356;28;20037;-59
2022/05/20 01:21:56;;;;;;;50.90;35.80;;;;;;;;;;5050292;28;20045;-59
2022/05/20 01:24:23;;;;;;;50.13;35.97;;;;;;;;;;5049962;28;20072;-59
2022/05/20 01:26:49;;;;;;;49.13;34.43;;;;;;;;;;5049702;28;20052;-59
2022/05/20 01:29:15;;;;;;;55.70;36.20;;;;;;;;;;5049346;28;20052;-59
2022/05/20 01:31:41;;;;;;;57.30;37.47;;;;;;;;;;5050416;28;20047;-58
2022/05/20 01:34:07;;;;;;;57.57;36.70;;;;;;;;;;5048693;28;20101;-59
2022/05/20 01:36:33;;;;;;;47.83;33.53;;;;;;;;;;5060878;28;20041;-59
2022/05/20 01:39:00;;;;;;;49.93;33.20;;;;;;;;;;5069681;28;20053;-59
2022/05/20 01:41:35;;;;;;;43.77;31.23;;;;;;;;;;5069739;28;20044;-59
2022/05/20 01:44:04;;;;;;;50.80;33.07;;;;;;;;;;5069169;28;20513;-59
2022/05/20 01:46:40;;;;;;;56.70;33.90;;;;;;;;;;5069159;28;20627;-59
2022/05/20 01:49:12;;;;;;;40.77;28.00;;;;;;;;;;5069223;28;20068;-59
2022/05/20 01:51:48;;;;;;;37.53;29.23;;;;;;;;;;5058017;28;20076;-59
2022/05/20 01:54:19;;;;;;;39.20;29.50;;;;;;;;;;5049417;28;20049;-59
2022/05/20 01:56:48;;;;;;;40.97;29.77;;;;;;;;;;5049662;28;20573;-59
2022/05/20 01:59:23;;;;;;;51.00;32.87;;;;;;;;;;5049602;28;20041;-59
2022/05/20 02:01:54;;;;;;;37.60;27.60;;;;;;;;;;5049935;28;20392;-59
2022/05/20 02:04:22;;;;;;;45.03;30.33;;;;;;;;;;5049597;28;20116;-59
2022/05/20 02:06:53;;;;;;;43.47;30.47;;;;;;;;;;5049912;28;20041;-59
2022/05/20 02:09:26;;;;;;;42.00;29.63;;;;;;;;;;5069737;28;20422;-59
2022/05/20 02:11:53;;;;;;;44.90;30.48;;;;;;;;;;5069591;28;20072;-59
2022/05/20 02:14:33;;;;;;;42.53;30.03;;;;;;;;;;5069237;28;20091;-59
2022/05/20 02:16:59;;;;;;;35.23;27.00;;;;;;;;;;5058074;28;20095;-59
2022/05/20 02:19:37;;;;;;;33.90;27.63;;;;;;;;;;5049367;28;20048;-59
2022/05/20 02:22:06;;;;;;;41.43;28.40;;;;;;;;;;5049488;28;20057;-59
2022/05/20 02:24:33;;;;;;;43.77;30.33;;;;;;;;;;5049303;28;21031;-59
2022/05/20 02:27:01;;;;;;;41.90;29.00;;;;;;;;;;5048284;28;20049;-58
2022/05/20 02:29:31;;;;;;;41.67;30.03;;;;;;;;;;5047705;28;20045;-59
2022/05/20 02:32:04;;;;;;;35.83;27.20;;;;;;;;;;5060747;28;20132;-59
2022/05/20 02:34:32;;;;;;;38.43;26.73;;;;;;;;;;5068652;28;20818;-59
2022/05/20 02:36:58;;;;;;;44.73;29.43;;;;;;;;;;5069422;28;20163;-59
2022/05/20 02:39:24;;;;;;;38.43;27.77;;;;;;;;;;5069199;28;20558;-59
2022/05/20 02:41:50;;;;;;;34.83;25.17;;;;;;;;;;5068624;28;20064;-59
2022/05/20 02:44:16;;;;;;;26.37;21.40;;;;;;;;;;5049288;28;20048;-59
2022/05/20 02:46:46;;;;;;;31.83;24.10;;;;;;;;;;5062807;28;20502;-59
2022/05/20 02:49:12;;;;;;;31.13;23.43;;;;;;;;;;5073321;28;20040;-58
2022/05/20 02:51:38;;;;;;;38.47;26.77;;;;;;;;;;5073065;28;20044;-59
2022/05/20 02:54:05;;;;;;;36.80;27.00;;;;;;;;;;5069401;28;20044;-59
2022/05/20 02:56:31;;;;;;;30.37;23.27;;;;;;;;;;5052617;28;20048;-59
2022/05/20 03:04:27;;;;;;;34.33;25.40;;;;;;;;;;5052886;28;20049;-59
2022/05/20 03:06:54;;;;;;;37.53;23.93;;;;;;;;;;5052402;28;20044;-59
2022/05/20 03:09:22;;;;;;;43.73;26.80;;;;;;;;;;5053141;28;20481;-59
2022/05/20 03:11:48;;;;;;;38.50;25.87;;;;;;;;;;5057808;28;20597;-58
2022/05/20 03:14:16;;;;;;;42.10;27.77;;;;;;;;;;5062176;28;20083;-58
2022/05/20 03:16:42;;;;;;;41.77;27.17;;;;;;;;;;5059563;28;20045;-59
2022/05/20 03:19:09;;;;;;;41.83;26.73;;;;;;;;;;5060906;28;20762;-59
2022/05/20 03:21:36;;;;;;;32.40;25.27;;;;;;;;;;5059756;28;20119;-59
2022/05/20 03:24:02;;;;;;;35.67;25.87;;;;;;;;;;5061670;28;20045;-59
2022/05/20 03:26:29;;;;;;;34.03;25.47;;;;;;;;;;5059914;28;20048;-59
2022/05/20 03:28:57;;;;;;;42.83;27.27;;;;;;;;;;5062181;28;20037;-59
2022/05/20 03:31:23;;;;;;;32.27;25.20;;;;;;;;;;5061040;28;20636;-59
2022/05/20 03:33:49;;;;;;;36.17;25.23;;;;;;;;;;5062988;28;20037;-59
2022/05/20 03:36:15;;;;;;;40.73;28.53;;;;;;;;;;5071332;28;20041;-59
2022/05/20 03:38:41;;;;;;;39.37;26.60;;;;;;;;;;5070496;28;20064;-59
2022/05/20 03:41:08;;;;;;;42.40;26.27;;;;;;;;;;5069864;28;20048;-59
2022/05/20 03:43:34;;;;;;;50.57;30.07;;;;;;;;;;5067859;28;20056;-59
2022/05/20 03:46:00;;;;;;;44.97;28.77;;;;;;;;;;5063896;28;20048;-59
2022/05/20 03:48:26;;;;;;;37.90;27.10;;;;;;;;;;5069097;28;20052;-59
2022/05/20 03:50:52;;;;;;;42.37;28.20;;;;;;;;;;5058464;28;20045;-58
2022/05/20 03:53:19;;;;;;;41.10;28.73;;;;;;;;;;5048448;28;20210;-59
2022/05/20 03:55:45;;;;;;;41.20;26.43;;;;;;;;;;5048535;28;20041;-59
2022/05/20 03:58:11;;;;;;;46.83;29.50;;;;;;;;;;5056363;28;20392;-59
2022/05/20 04:03:23;;;;;;;55.67;32.97;;;;;;;;;;5049077;28;20045;-59
2022/05/20 04:05:50;;;;;;;49.40;31.37;;;;;;;;;;5056026;28;20473;-59
2022/05/20 04:08:16;;;;;;;56.20;33.13;;;;;;;;;;5068615;28;20032;-59
2022/05/20 04:10:42;;;;;;;33.53;24.47;;;;;;;;;;5052578;28;20044;-59
2022/05/20 04:13:08;;;;;;;48.73;32.27;;;;;;;;;;5051863;28;20491;-59
2022/05/20 04:15:34;;;;;;;59.37;34.03;;;;;;;;;;5067492;28;20094;-59
2022/05/20 04:18:00;;;;;;;71.17;33.30;;;;;;;;;;5068887;28;20045;-59
2022/05/20 04:20:26;;;;;;;57.47;33.83;;;;;;;;;;5069458;28;20052;-59
2022/05/20 04:22:52;;;;;;;58.23;31.97;;;;;;;;;;5050160;28;20053;-59
2022/05/20 04:25:18;;;;;;;33.70;25.23;;;;;;;;;;5051065;28;20041;-59
2022/05/20 04:27:44;;;;;;;44.13;27.27;;;;;;;;;;5050571;28;20037;-60
2022/05/20 04:30:10;;;;;;;50.33;30.13;;;;;;;;;;5050081;28;20096;-59
2022/05/20 04:32:36;;;;;;;57.40;31.17;;;;;;;;;;5050081;28;20040;-59
2022/05/20 04:35:02;;;;;;;63.50;35.43;;;;;;;;;;5050313;28;20051;-59
2022/05/20 04:37:28;;;;;;;62.17;36.70;;;;;;;;;;5049760;28;20063;-59
2022/05/20 04:39:55;;;;;;;69.60;38.83;;;;;;;;;;5049659;28;20515;-60
2022/05/20 04:47:51;;;;;;;50.17;32.37;;;;;;;;;;5049554;28;20692;-59
2022/05/20 04:50:17;;;;;;;65.13;37.30;;;;;;;;;;5049421;28;20044;-60
2022/05/20 04:52:43;;;;;;;48.43;33.83;;;;;;;;;;5049949;28;20041;-59
2022/05/20 04:55:09;;;;;;;67.67;41.00;;;;;;;;;;5050468;28;20053;-59
2022/05/20 04:57:38;;;;;;;60.53;36.47;;;;;;;;;;5055852;28;20052;-60
2022/05/20 05:00:20;;;;;;;69.40;39.67;;;;;;;;;;5068804;28;20127;-59
2022/05/20 05:02:47;;;;;;;66.00;39.33;;;;;;;;;;5070207;28;20123;-59
2022/05/20 05:05:15;;;;;;;56.23;37.63;;;;;;;;;;5069572;28;20044;-59
2022/05/20 05:07:42;;;;;;;75.90;40.27;;;;;;;;;;5070135;28;20048;-60
2022/05/20 05:10:09;;;;;;;55.63;37.87;;;;;;;;;;5055924;28;20037;-59
2022/05/20 05:12:35;;;;;;;62.30;38.53;;;;;;;;;;5049852;28;20041;-59
2022/05/20 05:15:01;;;;;;;56.87;36.53;;;;;;;;;;5056876;28;20048;-60
2022/05/20 05:20:15;;;;;;;41.33;32.87;;;;;;;;;;5069796;28;20094;-60
2022/05/20 05:22:41;;;;;;;48.63;32.63;;;;;;;;;;5051691;28;20044;-59
2022/05/20 05:25:08;;;;;;;49.67;31.43;;;;;;;;;;5050031;28;20444;-59
2022/05/20 05:27:34;;;;;;;38.70;27.97;;;;;;;;;;5050898;28;20037;-60
2022/05/20 05:30:00;;;;;;;39.83;28.37;;;;;;;;;;5062662;28;20041;-59
2022/05/20 05:32:26;;;;;;;34.60;28.10;;;;;;;;;;5069847;28;20047;-59
2022/05/20 05:34:52;;;;;;;41.13;28.20;;;;;;;;;;5061895;28;20037;-59
2022/05/20 05:37:18;;;;;;;25.93;22.77;;;;;;;;;;5049691;28;20128;-59
2022/05/20 05:39:44;;;;;;;45.43;26.13;;;;;;;;;;5049358;28;20060;-59
2022/05/20 05:42:10;;;;;;;29.33;15.97;;;;;;;;;;5065095;28;20049;-59
2022/05/20 05:44:36;;;;;;;21.03;9.73;;;;;;;;;;5069623;28;20045;-59
2022/05/20 05:47:02;;;;;;;17.10;11.17;;;;;;;;;;5069483;28;20041;-60
2022/05/20 05:49:28;;;;;;;19.03;14.10;;;;;;;;;;5069535;28;20078;-60
2022/05/20 05:51:54;;;;;;;23.03;14.73;;;;;;;;;;5068894;28;20375;-60
2022/05/20 05:54:22;;;;;;;20.07;12.77;;;;;;;;;;5053069;28;20036;-60
2022/05/20 05:56:49;;;;;;;22.20;10.30;;;;;;;;;;5049546;28;20622;-60
2022/05/20 05:59:15;;;;;;;15.63;11.37;;;;;;;;;;5068719;28;20045;-60
2022/05/20 06:01:41;;;;;;;19.93;14.87;;;;;;;;;;5069039;28;20072;-59
2022/05/20 06:04:07;;;;;;;19.47;14.47;;;;;;;;;;5052843;28;20211;-60
2022/05/20 06:06:33;;;;;;;25.93;16.70;;;;;;;;;;5049291;28;20096;-60
2022/05/20 06:08:59;;;;;;;22.17;17.57;;;;;;;;;;5063525;28;20491;-59
2022/05/20 06:11:25;;;;;;;21.03;16.50;;;;;;;;;;5068893;28;20131;-60
2022/05/20 06:13:51;;;;;;;26.50;17.40;;;;;;;;;;5069087;28;20044;-59
2022/05/20 06:16:18;;;;;;;19.00;16.30;;;;;;;;;;5067613;28;20387;-60
2022/05/20 06:18:44;;;;;;;20.60;14.17;;;;;;;;;;5066418;28;20041;-60
2022/05/20 06:21:10;;;;;;;23.50;16.10;;;;;;;;;;5068435;28;20084;-59
2022/05/20 06:23:36;;;;;;;21.97;15.07;;;;;;;;;;5058993;28;20077;-59
2022/05/20 06:26:02;;;;;;;20.43;15.27;;;;;;;;;;5051663;28;20455;-60
2022/05/20 06:28:30;;;;;;;21.57;16.33;;;;;;;;;;5052968;28;20081;-59
2022/05/20 06:30:57;;;;;;;27.10;17.87;;;;;;;;;;5053154;28;20051;-60
2022/05/20 06:33:24;;;;;;;22.27;16.30;;;;;;;;;;5057609;28;20453;-59
2022/05/20 06:41:19;;;;;;;18.23;13.93;;;;;;;;;;5052902;28;20083;-59
2022/05/20 06:43:45;;;;;;;17.47;12.87;;;;;;;;;;5052781;28;20045;-59
2022/05/20 06:46:11;;;;;;;16.73;12.97;;;;;;;;;;5052970;28;20049;-59
2022/05/20 06:48:42;;;;;;;17.70;12.30;;;;;;;;;;5052669;28;20040;-59
2022/05/20 06:51:09;;;;;;;15.00;12.50;;;;;;;;;;5062631;28;20049;-59
2022/05/20 06:53:35;;;;;;;14.63;11.23;;;;;;;;;;5072553;28;20049;-59
2022/05/20 06:56:01;;;;;;;20.97;11.53;;;;;;;;;;5072676;28;20083;-60
2022/05/20 06:58:27;;;;;;;14.63;10.93;;;;;;;;;;5055840;28;20041;-59
2022/05/20 07:00:53;;;;;;;12.87;9.40;;;;;;;;;;5052330;28;20049;-60
2022/05/20 07:03:21;;;;;;;17.07;11.40;;;;;;;;;;5051929;28;20047;-59
2022/05/20 07:05:48;;;;;;;13.20;11.23;;;;;;;;;;5053060;28;20052;-60
2022/05/20 07:08:14;;;;;;;11.87;10.23;;;;;;;;;;5052246;28;20041;-59
2022/05/20 07:10:40;;;;;;;15.17;11.23;;;;;;;;;;5052558;28;20406;-60
2022/05/20 07:13:06;;;;;;;15.47;10.53;;;;;;;;;;5069976;28;20076;-59
2022/05/20 07:15:33;;;;;;;14.40;9.03;;;;;;;;;;5053073;28;20439;-60
2022/05/20 07:17:59;;;;;;;14.80;10.37;;;;;;;;;;5051336;28;20049;-59
2022/05/20 07:20:25;;;;;;;14.30;10.23;;;;;;;;;;5052645;28;20136;-59
2022/05/20 07:22:51;;;;;;;11.57;8.80;;;;;;;;;;5051369;28;20602;-60
2022/05/20 07:25:19;;;;;;;11.67;9.07;;;;;;;;;;5059078;28;20036;-59
2022/05/20 07:27:45;;;;;;;17.17;10.33;;;;;;;;;;5071184;28;20523;-60
2022/05/20 07:30:12;;;;;;;16.53;8.50;;;;;;;;;;5066990;28;20135;-59
2022/05/20 07:32:38;;;;;;;13.53;8.90;;;;;;;;;;5052925;28;20056;-60
2022/05/20 07:35:04;;;;;;;12.90;8.23;;;;;;;;;;5066977;28;20628;-59
2022/05/20 07:37:31;;;;;;;15.73;8.20;;;;;;;;;;5057353;28;20045;-60
2022/05/20 07:39:57;;;;;;;10.63;8.40;;;;;;;;;;5060977;28;20056;-59
2022/05/20 07:42:23;;;;;;;12.90;7.27;;;;;;;;;;5060976;28;20049;-59
2022/05/20 07:44:50;;;;;;;12.70;8.43;;;;;;;;;;5051932;28;20049;-60
2022/05/20 07:47:16;;;;;;;13.63;8.00;;;;;;;;;;5051638;28;20048;-59
2022/05/20 07:49:42;;;;;;;10.60;7.53;;;;;;;;;;5050045;28;20410;-59
2022/05/20 07:52:10;;;;;;;11.67;7.67;;;;;;;;;;5049299;28;20434;-59
2022/05/20 07:54:39;;;;;;;12.33;7.17;;;;;;;;;;5051597;28;20048;-59
2022/05/20 07:57:07;;;;;;;10.13;7.37;;;;;;;;;;5053080;28;20044;-59
2022/05/20 07:59:45;;;;;;;9.77;7.73;;;;;;;;;;5051159;28;20045;-60
2022/05/20 08:02:12;;;;;;;10.70;6.57;;;;;;;;;;5051121;28;20048;-59
2022/05/20 08:04:56;;;;;;;11.27;7.03;;;;;;;;;;5051461;28;20045;-60
2022/05/20 08:07:34;;;;;;;8.10;6.33;;;;;;;;;;5050789;28;20470;-60
2022/05/20 08:10:00;;;;;;;10.43;6.10;;;;;;;;;;5068952;28;20044;-59
2022/05/20 08:12:27;;;;;;;10.57;7.20;;;;;;;;;;5058665;28;20047;-59
2022/05/20 08:14:53;;;;;;;8.60;5.67;;;;;;;;;;5051361;28;20041;-59
2022/05/20 08:17:20;;;;;;;7.23;5.27;;;;;;;;;;5050985;28;20080;-59
2022/05/20 08:19:47;;;;;;;10.23;5.90;;;;;;;;;;5050873;28;20048;-59
2022/05/20 08:22:14;;;;;;;10.00;6.40;;;;;;;;;;5062206;28;20502;-60
2022/05/20 08:24:40;;;;;;;8.23;5.87;;;;;;;;;;5067756;28;20049;-59
2022/05/20 08:27:06;;;;;;;10.03;6.47;;;;;;;;;;5050949;28;20120;-60
2022/05/20 08:29:33;;;;;;;9.77;6.63;;;;;;;;;;5050646;28;20041;-60
2022/05/20 08:31:59;;;;;;;9.40;6.43;;;;;;;;;;5050255;28;20052;-59
2022/05/20 08:34:25;;;;;;;8.13;6.43;;;;;;;;;;5050592;28;20422;-60
2022/05/20 08:36:51;;;;;;;7.87;5.53;;;;;;;;;;5050710;28;20045;-60
2022/05/20 08:39:17;;;;;;;8.67;5.87;;;;;;;;;;5060145;28;20419;-60
2022/05/20 08:41:48;;;;;;;10.10;6.00;;;;;;;;;;5050300;28;20098;-59
2022/05/20 08:44:17;;;;;;;8.10;5.43;;;;;;;;;;5069277;28;20048;-60
2022/05/20 08:46:43;;;;;;;11.33;6.40;;;;;;;;;;5070735;28;20453;-59
2022/05/20 08:49:10;;;;;;;6.77;5.77;;;;;;;;;;5070415;28;20072;-60
2022/05/20 08:51:39;;;;;;;8.77;5.77;;;;;;;;;;5062886;28;20398;-60
2022/05/20 08:54:06;;;;;;;8.67;6.47;;;;;;;;;;5049885;28;20045;-60
2022/05/20 08:56:32;;;;;;;8.03;6.20;;;;;;;;;;5050248;28;20048;-60
2022/05/20 08:59:02;;;;;;;10.30;6.70;;;;;;;;;;5050316;28;20041;-60
2022/05/20 09:01:39;;;;;;;10.07;6.27;;;;;;;;;;5060167;28;20048;-59
2022/05/20 09:04:06;;;;;;;9.23;6.07;;;;;;;;;;5062387;28;20059;-58
2022/05/20 09:06:36;;;;;;;9.80;6.70;;;;;;;;;;5051847;28;20092;-58
2022/05/20 09:09:02;;;;;;;7.40;6.00;;;;;;;;;;5052979;28;20070;-58
2022/05/20 09:11:29;;;;;;;9.90;5.57;;;;;;;;;;5070195;28;20048;-59
2022/05/20 09:17:04;;;;;;;8.65;5.90;;;;;;;;;;5067216;28;20037;-58
2022/05/20 09:19:30;;;;;;;10.60;6.60;;;;;;;;;;5069249;28;20047;-58
2022/05/20 09:22:05;;;;;;;8.10;6.03;;;;;;;;;;5064517;28;20037;-59
2022/05/20 09:24:36;;;;;;;11.05;5.97;;;;;;;;;;5049412;28;20084;-59
2022/05/20 09:27:14;;;;;;;9.02;6.38;;;;;;;;;;5048584;28;20108;-58
2022/05/20 09:29:41;;;;;;;8.60;5.90;;;;;;;;;;5049383;28;20045;-59
2022/05/20 09:32:15;;;;;;;8.73;5.90;;;;;;;;;;5055959;28;20037;-58
2022/05/20 09:34:43;;;;;;;9.02;5.85;;;;;;;;;;5069250;28;20036;-59
2022/05/20 09:37:29;;;;;;;8.98;4.90;;;;;;;;;;5068937;28;20495;-58
2022/05/20 09:39:55;;;;;;;7.18;5.50;;;;;;;;;;5069304;28;20053;-59
2022/05/20 09:42:24;;;;;;;9.70;5.43;;;;;;;;;;5068970;28;20384;-59
2022/05/20 09:44:51;;;;;;;8.80;4.60;;;;;;;;;;5069291;28;20159;-58
2022/05/20 09:47:20;;;;;;;10.05;4.75;;;;;;;;;;5059411;28;20053;-59
2022/05/20 09:49:54;;;;;;;7.63;5.30;;;;;;;;;;5052630;28;20421;-59
2022/05/20 09:52:26;;;;;;;11.15;6.05;;;;;;;;;;5049282;28;20049;-59
2022/05/20 09:54:58;;;;;;;8.52;5.30;;;;;;;;;;5049180;28;20150;-58
2022/05/20 09:57:28;;;;;;;7.47;6.17;;;;;;;;;;5047984;28;20045;-59
2022/05/20 09:59:58;;;;;;;7.68;5.22;;;;;;;;;;5067903;28;20052;-59
2022/05/20 10:02:24;;;;;;;4.57;4.18;;;;;;;;;;5063464;28;20055;-58
2022/05/20 10:04:57;;;;;;;7.03;4.80;;;;;;;;;;5052047;28;20362;-59
2022/05/20 10:07:39;;;;;;;6.43;4.70;;;;;;;;;;5048491;28;20170;-58
2022/05/20 10:10:11;;;;;;;7.97;4.47;;;;;;;;;;5049029;28;20095;-59
2022/05/20 10:12:38;;;;;;;6.32;4.00;;;;;;;;;;5049121;28;20045;-59
2022/05/20 10:15:12;;;;;;;8.50;4.63;;;;;;;;;;5049132;28;20095;-59
2022/05/20 10:17:47;;;;;;;7.03;4.22;;;;;;;;;;5049212;28;20415;-59
2022/05/20 10:20:16;;;;;;;6.55;5.18;;;;;;;;;;5048840;28;20060;-59
2022/05/20 10:22:42;;;;;;;7.20;4.97;;;;;;;;;;5049089;28;20049;-59
2022/05/20 10:25:08;;;;;;;10.77;5.35;;;;;;;;;;5048656;28;20057;-59
2022/05/20 10:27:43;;;;;;;6.82;4.28;;;;;;;;;;5049248;28;20076;-59
2022/05/20 10:33:02;;;;;;;;;;;;;;;;;;5058310;28;20037;-59
2022/05/20 10:35:41;;;;;;;6.07;3.63;;;;;;;;;;5048522;28;20069;-58
2022/05/20 10:38:26;;;;;;;7.90;3.38;;;;;;;;;;5048956;28;20049;-58
2022/05/20 10:41:05;;;;;;;9.00;3.83;;;;;;;;;;5048494;28;20494;-58
2022/05/20 10:49:15;;;;;;;5.53;3.50;;;;;;;;;;5050833;28;20053;-59
2022/05/20 10:52:00;;;;;;;5.22;3.45;;;;;;;;;;5047184;28;20076;-59
2022/05/20 10:54:29;;;;;;;7.40;3.53;;;;;;;;;;5047732;28;20067;-58
2022/05/20 10:57:20;;;;;;;7.60;3.75;;;;;;;;;;5048011;28;20140;-59
2022/05/20 11:00:03;;;;;;;6.72;3.50;;;;;;;;;;5048495;28;20037;-59
2022/05/20 11:02:36;;;;;;;6.65;3.60;;;;;;;;;;5047978;28;20053;-59
2022/05/20 11:05:05;;;;;;;5.47;2.92;;;;;;;;;;5061246;28;20109;-59
2022/05/20 11:07:50;;;;;;;5.75;3.28;;;;;;;;;;5068302;28;20143;-59
2022/05/20 11:10:42;;;;;;;5.65;3.10;;;;;;;;;;5071686;28;20087;-59
2022/05/20 11:13:15;;;;;;;5.43;4.00;;;;;;;;;;5070875;28;20056;-59
2022/05/20 11:15:41;;;;;;;9.35;4.55;;;;;;;;;;5052537;28;20295;-59
2022/05/20 11:18:14;;;;;;;6.03;4.38;;;;;;;;;;5051823;28;20052;-59
2022/05/20 11:20:45;;;;;;;8.43;4.82;;;;;;;;;;5055472;28;20076;-59
2022/05/20 11:23:27;;;;;;;6.32;4.15;;;;;;;;;;5061694;28;20048;-59
2022/05/20 11:26:11;;;;;;;4.70;3.97;;;;;;;;;;5070232;28;20110;-59
2022/05/20 11:28:37;;;;;;;5.03;3.95;;;;;;;;;;5067814;28;20037;-59
2022/05/20 11:31:12;;;;;;;6.97;4.82;;;;;;;;;;5052101;28;20391;-59
2022/05/20 11:33:54;;;;;;;5.22;4.28;;;;;;;;;;5051800;28;20045;-59
2022/05/20 11:36:33;;;;;;;4.85;4.15;;;;;;;;;;5053515;28;20586;-59
2022/05/20 11:39:07;;;;;;;5.60;4.25;;;;;;;;;;5065490;28;20582;-59
2022/05/20 11:41:40;;;;;;;7.88;4.03;;;;;;;;;;5052471;28;20084;-59
2022/05/20 11:44:06;;;;;;;;;;;;;;;;;;5058763;28;20059;-59
2022/05/20 11:46:50;;;;;;;5.65;5.07;;;;;;;;;;5052135;28;19920;-59
2022/05/20 11:49:19;;;;;;;6.82;4.70;;;;;;;;;;5052092;28;20052;-59
2022/05/20 11:52:03;;;;;;;5.57;4.82;;;;;;;;;;5070090;28;20052;-59
2022/05/20 11:54:43;;;;;;;7.45;5.63;;;;;;;;;;5065186;28;20048;-59
2022/05/20 11:57:18;;;;;;;6.30;5.38;;;;;;;;;;5066571;28;20062;-59
2022/05/20 12:00:03;;;;;;;5.80;5.07;;;;;;;;;;5064846;28;20112;-59
2022/05/20 12:02:31;;;;;;;7.00;5.47;;;;;;;;;;5058404;28;20059;-59
2022/05/20 12:04:57;;;;;;;8.70;4.95;;;;;;;;;;5068360;28;20044;-59
2022/05/20 12:07:24;;;;;;;7.75;5.18;;;;;;;;;;5050762;28;20110;-59
2022/05/20 12:09:54;;;;;;;7.72;5.07;;;;;;;;;;5064513;28;20041;-59
2022/05/20 12:12:30;;;;;;;6.50;5.78;;;;;;;;;;5062835;28;20462;-59
2022/05/20 12:15:06;;;;;;;7.53;5.15;;;;;;;;;;5069151;28;20052;-59
2022/05/20 12:17:37;;;;;;;7.13;5.47;;;;;;;;;;5068786;28;20052;-59
2022/05/20 12:25:52;;;;;;;8.15;5.18;;;;;;;;;;5056001;28;20128;-59
2022/05/20 12:28:21;;;;;;;6.53;5.43;;;;;;;;;;5053306;28;20414;-59
2022/05/20 12:31:07;;;;;;;7.72;5.45;;;;;;;;;;5069794;28;20072;-59
2022/05/20 12:33:51;;;;;;;7.93;5.43;;;;;;;;;;5064199;28;20123;-58
2022/05/20 12:36:22;;;;;;;5.88;5.10;;;;;;;;;;5067920;28;20048;-59
2022/05/20 12:38:48;;;;;;;6.57;4.75;;;;;;;;;;5058952;28;20090;-59
2022/05/20 12:41:17;;;;;;;7.13;5.03;;;;;;;;;;5064365;28;20045;-59
2022/05/20 12:43:46;;;;;;;7.78;4.63;;;;;;;;;;5069055;28;20292;-59
2022/05/20 12:46:15;;;;;;;5.40;4.60;;;;;;;;;;5067646;28;20512;-59
2022/05/20 12:48:41;;;;;;;5.75;5.00;;;;;;;;;;5050667;28;20568;-59
2022/05/20 12:51:08;;;;;;;8.45;5.50;;;;;;;;;;5051498;28;20040;-59
2022/05/20 12:53:36;;;;;;;6.40;5.35;;;;;;;;;;5067823;28;20048;-59
2022/05/20 12:56:02;;;;;;;6.60;4.85;;;;;;;;;;5057775;28;20040;-59
2022/05/20 12:58:32;;;;;;;8.25;5.35;;;;;;;;;;5069043;28;20105;-59
2022/05/20 13:01:00;;;;;;;6.68;6.00;;;;;;;;;;5067518;28;20044;-59
2022/05/20 13:03:35;;;;;;;5.82;5.22;;;;;;;;;;5050463;28;20049;-59
2022/05/20 13:06:01;;;;;;;8.07;5.60;;;;;;;;;;5048709;28;20561;-58
2022/05/20 13:08:50;;;;;;;7.13;5.93;;;;;;;;;;5048965;28;20049;-59
2022/05/20 13:11:17;;;;;;;8.50;6.72;;;;;;;;;;5045503;28;20088;-58
2022/05/20 13:13:43;;;;;;;8.90;7.40;;;;;;;;;;5048342;28;20110;-59
2022/05/20 13:16:10;;;;;;;7.80;5.57;;;;;;;;;;5048714;28;20099;-58
2022/05/20 13:18:38;;;;;;;9.73;5.90;;;;;;;;;;5048414;28;20048;-59
2022/05/20 13:21:07;;;;;;;6.93;5.23;;;;;;;;;;5048519;28;20103;-58
2022/05/20 13:23:37;;;;;;;9.37;5.60;;;;;;;;;;5047972;28;20063;-59
2022/05/20 13:26:04;;;;;;;11.10;6.60;;;;;;;;;;5048090;28;20454;-58
2022/05/20 13:28:37;;;;;;;10.97;8.10;;;;;;;;;;5047983;28;20132;-59
2022/05/20 13:31:05;;;;;;;13.53;8.00;;;;;;;;;;5049372;28;20037;-59
2022/05/20 13:33:32;;;;;;;15.27;10.07;;;;;;;;;;5047805;28;20049;-58
2022/05/20 13:36:00;;;;;;;12.40;9.47;;;;;;;;;;5048073;28;20044;-58
2022/05/20 13:38:27;;;;;;;15.23;11.10;;;;;;;;;;5047789;28;20139;-59
2022/05/20 13:40:53;;;;;;;19.87;14.83;;;;;;;;;;5048177;28;20041;-58
2022/05/20 13:43:22;;;;;;;27.07;17.70;;;;;;;;;;5047965;28;20055;-58
2022/05/20 13:51:26;;;;;;;93.93;26.57;;;;;;;;;;5047702;28;20118;-59
2022/05/20 13:53:54;;;;;;;98.67;29.13;;;;;;;;;;5047802;28;20065;-61
2022/05/20 13:56:25;;;;;;;125.57;29.67;;;;;;;;;;5046618;28;20463;-61
2022/05/20 13:58:52;;;;;;;104.37;33.13;;;;;;;;;;5049248;28;20514;-62
2022/05/20 14:01:20;;;;;;;54.83;25.00;;;;;;;;;;5067063;28;20048;-61
2022/05/20 14:03:47;;;;;;;73.30;30.97;;;;;;;;;;5067952;28;20052;-61
2022/05/20 14:06:16;;;;;;;91.23;34.67;;;;;;;;;;5067674;28;20066;-61
2022/05/20 14:08:45;;;;;;;162.73;44.73;;;;;;;;;;5067490;28;20067;-61
2022/05/20 14:11:13;;;;;;;211.83;46.60;;;;;;;;;;5067566;28;20056;-61
2022/05/20 14:13:40;;;;;;;57.37;26.80;;;;;;;;;;5065138;28;20133;-61
2022/05/20 14:16:35;;;;;;;75.30;30.33;;;;;;;;;;5047513;28;20472;-62
2022/05/20 14:19:04;;;;;;;77.90;29.33;;;;;;;;;;5042484;28;20052;-62
2022/05/20 14:21:36;;;;;;;118.30;36.13;;;;;;;;;;5047529;28;20390;-61
2022/05/20 14:24:07;;;;;;;76.90;28.70;;;;;;;;;;5047685;28;20045;-62
2022/05/20 14:26:35;;;;;;;108.07;29.73;;;;;;;;;;5047544;28;20048;-61
2022/05/20 14:29:06;;;;;;;165.13;43.70;;;;;;;;;;5053098;28;20380;-61
2022/05/20 14:31:45;;;;;;;185.30;48.20;;;;;;;;;;5066664;28;20047;-61
2022/05/20 14:34:19;;;;;;;99.73;35.57;;;;;;;;;;5067370;28;20056;-62
2022/05/20 14:36:45;;;;;;;157.00;44.27;;;;;;;;;;5068124;28;20418;-62
2022/05/20 14:39:14;;;;;;;94.30;36.37;;;;;;;;;;5067365;28;20549;-62
2022/05/20 14:41:42;;;;;;;275.67;53.33;;;;;;;;;;5066456;28;20183;-61
2022/05/20 14:44:09;;;;;;;132.57;42.30;;;;;;;;;;5050380;28;20409;-61
2022/05/20 14:49:34;;;;;;;235.73;59.47;;;;;;;;;;5051277;28;20051;-62
2022/05/20 14:52:01;;;;;;;365.20;74.23;;;;;;;;;;5051034;28;20040;-62
2022/05/20 14:54:29;;;;;;;469.30;87.30;;;;;;;;;;5051499;28;20517;-63
2022/05/20 14:56:55;;;;;;;302.00;58.33;;;;;;;;;;5058260;28;20040;-63
2022/05/20 14:59:30;;;;;;;176.70;47.70;;;;;;;;;;5069757;28;20037;-63
2022/05/20 15:01:56;;;;;;;101.70;39.10;;;;;;;;;;5070730;28;20045;-63
2022/05/20 15:04:22;;;;;;;113.73;40.67;;;;;;;;;;5070809;28;20074;-63
2022/05/20 15:06:48;;;;;;;250.77;51.70;;;;;;;;;;5071028;28;20075;-63
2022/05/20 15:09:23;;;;;;;144.83;42.27;;;;;;;;;;5070895;28;20095;-64
2022/05/20 15:11:49;;;;;;;109.53;41.60;;;;;;;;;;5059446;28;20091;-63
2022/05/20 15:14:15;;;;;;;111.63;38.40;;;;;;;;;;5050793;28;20087;-63
2022/05/20 15:16:41;;;;;;;179.77;50.30;;;;;;;;;;5058130;28;20076;-63
2022/05/20 15:19:08;;;;;;;225.80;48.23;;;;;;;;;;5058443;28;20041;-64
2022/05/20 15:21:35;;;;;;;193.97;51.70;;;;;;;;;;5050395;28;20049;-64
2022/05/20 15:24:04;;;;;;;147.23;43.27;;;;;;;;;;5050729;28;21008;-64
2022/05/20 15:26:31;;;;;;;142.10;41.23;;;;;;;;;;5049604;28;20052;-63